createdAt,value
2023-01-31T00:02:11.857Z,15.60
2023-01-31T00:04:47.190Z,14.10
2023-01-31T00:07:21.736Z,15.10
2023-01-31T00:09:56.813Z,13.50
2023-01-31T00:12:30.783Z,15.50
2023-01-31T00:15:05.457Z,15.00
2023-01-31T00:17:42.377Z,13.70
2023-01-31T00:20:19.571Z,18.80
2023-01-31T00:22:55.109Z,17.90
2023-01-31T00:25:31.315Z,18.00
2023-01-31T00:28:06.822Z,12.50
2023-01-31T00:30:43.341Z,13.30
2023-01-31T00:33:18.866Z,14.90
2023-01-31T00:35:55.319Z,17.00
2023-01-31T00:38:29.958Z,15.40
2023-01-31T00:41:06.454Z,16.40
2023-01-31T00:43:43.967Z,17.60
2023-01-31T00:46:20.637Z,16.90
2023-01-31T00:48:58.771Z,16.10
2023-01-31T00:51:33.720Z,18.10
2023-01-31T00:54:07.926Z,20.00
2023-01-31T00:56:45.950Z,15.90
2023-01-31T00:59:21.683Z,19.60
2023-01-31T01:01:57.913Z,17.40
2023-01-31T01:04:34.827Z,19.10
2023-01-31T01:07:11.632Z,16.10
2023-01-31T01:09:46.489Z,17.30
2023-01-31T01:12:23.029Z,16.60
2023-01-31T01:14:58.409Z,17.50
2023-01-31T01:17:34.375Z,19.80
2023-01-31T01:20:13.056Z,22.00
2023-01-31T01:22:50.560Z,16.00
2023-01-31T01:25:30.502Z,18.20
2023-01-31T01:28:08.481Z,21.00
2023-01-31T01:30:47.071Z,18.40
2023-01-31T01:33:22.816Z,21.10
2023-01-31T01:35:58.123Z,21.10
2023-01-31T01:38:35.431Z,16.30
2023-01-31T01:41:13.155Z,18.40
2023-01-31T01:43:50.586Z,20.20
2023-01-31T01:46:30.575Z,17.90
2023-01-31T01:49:18.498Z,19.40
2023-01-31T01:51:56.711Z,22.80
2023-01-31T01:54:39.748Z,18.50
2023-01-31T01:57:18.982Z,19.30
2023-01-31T02:00:03.598Z,20.10
2023-01-31T02:02:54.273Z,20.10
2023-01-31T02:05:33.646Z,19.10
2023-01-31T02:08:11.884Z,19.40
2023-01-31T02:10:57.207Z,20.70
2023-01-31T02:13:33.271Z,15.40
2023-01-31T02:16:09.555Z,23.20
2023-01-31T02:18:45.419Z,21.30
2023-01-31T02:22:07.115Z,21.60
2023-01-31T02:25:44.947Z,17.50
2023-01-31T02:28:59.766Z,21.30
2023-01-31T02:32:03.918Z,17.20
2023-01-31T02:34:47.671Z,16.40
2023-01-31T02:37:39.859Z,18.00
2023-01-31T02:40:25.399Z,18.00
2023-01-31T02:43:09.556Z,15.90
2023-01-31T02:46:04.038Z,20.30
2023-01-31T02:48:54.910Z,17.70
2023-01-31T02:51:34.768Z,16.20
2023-01-31T02:54:16.667Z,16.20
2023-01-31T02:56:54.894Z,16.80
2023-01-31T02:59:32.080Z,16.80
2023-01-31T03:02:08.061Z,16.90
2023-01-31T03:04:44.074Z,14.70
2023-01-31T03:07:26.577Z,13.60
2023-01-31T03:10:12.761Z,16.50
2023-01-31T03:13:22.149Z,13.70
2023-01-31T03:16:22.142Z,14.90
2023-01-31T03:19:14.000Z,15.20
2023-01-31T03:21:53.530Z,14.40
2023-01-31T03:24:30.442Z,14.90
2023-01-31T03:27:07.514Z,18.20
2023-01-31T03:29:45.274Z,17.40
2023-01-31T03:32:25.491Z,17.10
2023-01-31T03:35:00.009Z,15.40
2023-01-31T03:37:43.130Z,14.30
2023-01-31T03:40:28.066Z,14.50
2023-01-31T03:43:14.827Z,14.60
2023-01-31T03:45:56.236Z,12.40
2023-01-31T03:48:36.161Z,14.70
2023-01-31T03:51:20.103Z,18.80
2023-01-31T03:54:16.999Z,15.10
2023-01-31T03:56:58.391Z,16.90
2023-01-31T03:59:37.100Z,13.30
2023-01-31T04:02:18.131Z,13.50
2023-01-31T04:04:56.132Z,15.20
2023-01-31T04:07:30.102Z,11.70
2023-01-31T04:10:07.506Z,14.20
2023-01-31T04:12:43.688Z,16.40
2023-01-31T04:15:20.110Z,14.40
2023-01-31T04:17:54.763Z,13.40
2023-01-31T04:20:32.058Z,15.80
2023-01-31T04:23:08.204Z,13.40
2023-01-31T04:25:43.992Z,14.20
2023-01-31T04:28:19.528Z,16.80
2023-01-31T04:30:59.830Z,12.20
2023-01-31T04:33:35.801Z,13.60
2023-01-31T04:36:15.231Z,13.90
2023-01-31T04:38:51.079Z,13.00
2023-01-31T04:41:28.182Z,13.60
2023-01-31T04:44:03.877Z,15.90
2023-01-31T04:46:38.264Z,15.00
2023-01-31T04:49:14.238Z,13.10
2023-01-31T04:51:49.963Z,14.50
2023-01-31T04:54:24.423Z,12.40
2023-01-31T04:57:00.143Z,13.50
2023-01-31T04:59:38.548Z,12.20
2023-01-31T05:02:15.393Z,11.50
2023-01-31T05:04:50.356Z,14.00
2023-01-31T05:07:26.957Z,12.80
2023-01-31T05:10:01.051Z,11.50
2023-01-31T05:12:36.324Z,14.50
2023-01-31T05:15:17.138Z,13.40
2023-01-31T05:18:03.571Z,15.80
2023-01-31T05:20:41.091Z,14.70
2023-01-31T05:23:17.093Z,14.50
2023-01-31T05:25:53.550Z,13.60
2023-01-31T05:28:27.758Z,19.50
2023-01-31T05:31:09.829Z,16.30
2023-01-31T05:33:45.884Z,12.00
2023-01-31T05:36:24.835Z,14.20
2023-01-31T05:39:03.720Z,17.70
2023-01-31T05:41:39.482Z,13.40
2023-01-31T05:44:16.560Z,13.10
2023-01-31T05:46:51.773Z,11.70
2023-01-31T05:49:27.668Z,15.90
2023-01-31T05:52:04.671Z,14.70
2023-01-31T05:54:40.065Z,11.20
2023-01-31T05:57:16.491Z,13.40
2023-01-31T05:59:52.735Z,14.70
2023-01-31T06:02:27.145Z,14.40
2023-01-31T06:05:04.778Z,14.30
2023-01-31T06:07:39.710Z,14.20
2023-01-31T06:10:15.987Z,12.80
2023-01-31T06:12:56.365Z,14.00
2023-01-31T06:15:30.686Z,15.50
2023-01-31T06:18:08.233Z,16.70
2023-01-31T06:20:45.813Z,17.80
2023-01-31T06:23:20.654Z,13.60
2023-01-31T06:25:59.546Z,18.60
2023-01-31T06:28:37.594Z,12.10
2023-01-31T06:31:14.902Z,15.90
2023-01-31T06:33:51.045Z,15.20
2023-01-31T06:36:25.860Z,13.50
2023-01-31T06:39:01.636Z,13.30
2023-01-31T06:41:37.141Z,14.90
2023-01-31T06:44:12.986Z,12.00
2023-01-31T06:46:48.868Z,13.80
2023-01-31T06:49:23.436Z,11.30
2023-01-31T06:52:02.893Z,14.40
2023-01-31T06:54:38.391Z,14.50
2023-01-31T06:57:16.337Z,13.20
2023-01-31T06:59:51.783Z,13.90
2023-01-31T07:02:30.504Z,12.40
2023-01-31T07:05:07.888Z,13.30
2023-01-31T07:07:46.835Z,12.40
2023-01-31T07:10:25.974Z,14.70
2023-01-31T07:13:20.925Z,14.30
2023-01-31T07:16:02.035Z,14.20
2023-01-31T07:18:36.177Z,13.50
2023-01-31T07:21:11.502Z,13.10
2023-01-31T07:23:47.570Z,13.60
2023-01-31T07:26:23.841Z,11.90
2023-01-31T07:29:01.768Z,11.80
2023-01-31T07:31:37.307Z,14.70
2023-01-31T07:34:13.414Z,15.60
2023-01-31T07:36:51.958Z,15.60
2023-01-31T07:39:27.363Z,15.50
2023-01-31T07:42:02.980Z,17.60
2023-01-31T07:44:37.897Z,13.40
2023-01-31T07:47:12.747Z,16.20
2023-01-31T07:49:48.721Z,15.80
2023-01-31T07:52:23.743Z,17.10
2023-01-31T07:55:00.261Z,15.70
2023-01-31T07:57:39.503Z,13.00
2023-01-31T08:00:42.206Z,15.70
2023-01-31T08:03:36.613Z,13.20
2023-01-31T08:06:17.537Z,17.40
2023-01-31T08:08:53.834Z,13.80
2023-01-31T08:11:29.812Z,17.00
2023-01-31T08:14:05.447Z,18.50
2023-01-31T08:16:42.813Z,10.30
2023-01-31T08:19:17.372Z,14.00
2023-01-31T08:21:52.670Z,15.00
2023-01-31T08:24:29.290Z,16.00
2023-01-31T08:27:03.303Z,17.70
2023-01-31T08:29:38.861Z,15.00
2023-01-31T08:32:15.227Z,17.20
2023-01-31T08:34:49.304Z,13.40
2023-01-31T08:37:23.359Z,19.20
2023-01-31T08:39:58.765Z,16.50
2023-01-31T08:42:34.112Z,14.70
2023-01-31T08:45:12.765Z,16.80
2023-01-31T08:47:47.838Z,18.00
2023-01-31T08:50:27.900Z,12.90
2023-01-31T08:53:05.173Z,12.60
2023-01-31T08:55:40.381Z,14.10
2023-01-31T08:58:15.665Z,18.80
2023-01-31T09:00:52.407Z,13.60
2023-01-31T09:03:27.373Z,13.00
2023-01-31T09:06:06.496Z,19.20
2023-01-31T09:08:42.277Z,16.10
2023-01-31T09:11:19.538Z,12.10
2023-01-31T09:13:54.404Z,14.70
2023-01-31T09:16:32.699Z,13.00
2023-01-31T09:19:07.842Z,13.90
2023-01-31T09:21:42.949Z,11.00
2023-01-31T09:24:18.329Z,15.90
2023-01-31T09:26:54.578Z,11.80
2023-01-31T09:29:29.822Z,11.40
2023-01-31T09:32:05.102Z,16.60
2023-01-31T09:34:39.141Z,11.30
2023-01-31T09:37:13.363Z,14.80
2023-01-31T09:39:50.278Z,11.90
2023-01-31T09:42:28.380Z,27.60
2023-01-31T09:45:08.870Z,12.40
2023-01-31T09:47:48.906Z,12.80
2023-01-31T09:50:30.831Z,15.00
2023-01-31T09:53:07.110Z,16.80
2023-01-31T09:55:56.415Z,10.20
2023-01-31T09:58:44.256Z,11.70
2023-01-31T10:01:24.804Z,10.00
2023-01-31T10:04:19.807Z,12.00
2023-01-31T10:07:01.116Z,12.80
2023-01-31T10:09:39.466Z,80.40
2023-01-31T10:12:20.472Z,50.00
2023-01-31T10:15:02.082Z,48.60
2023-01-31T10:17:42.915Z,43.40
2023-01-31T10:20:25.569Z,10.00
2023-01-31T10:23:04.493Z,11.20
2023-01-31T10:25:48.126Z,8.80
2023-01-31T10:28:31.763Z,13.90
2023-01-31T10:31:15.358Z,13.20
2023-01-31T10:34:06.863Z,9.40
2023-01-31T10:36:48.835Z,11.60
2023-01-31T10:39:28.109Z,13.80
2023-01-31T10:42:33.443Z,11.80
2023-01-31T10:45:17.295Z,12.40
2023-01-31T10:47:59.792Z,10.10
2023-01-31T10:50:47.675Z,10.90
2023-01-31T10:53:38.109Z,15.10
2023-01-31T10:56:20.342Z,10.00
2023-01-31T10:58:56.731Z,10.10
2023-01-31T11:01:31.124Z,10.50
2023-01-31T11:04:16.938Z,10.40
2023-01-31T11:06:52.637Z,9.90
2023-01-31T11:09:30.040Z,11.60
2023-01-31T11:12:08.542Z,10.00
2023-01-31T11:14:44.850Z,15.50
2023-01-31T11:17:25.584Z,8.50
2023-01-31T11:20:01.313Z,12.20
2023-01-31T11:22:40.344Z,9.10
2023-01-31T11:25:24.932Z,9.20
2023-01-31T11:28:03.186Z,21.00
2023-01-31T11:30:42.778Z,11.00
2023-01-31T11:33:42.442Z,11.20
2023-01-31T11:36:23.273Z,8.40
2023-01-31T11:38:58.632Z,12.70
2023-01-31T11:41:37.070Z,12.20
2023-01-31T11:44:18.247Z,12.00
2023-01-31T11:46:58.547Z,67.40
2023-01-31T11:49:36.148Z,61.00
2023-01-31T11:52:22.107Z,10.50
2023-01-31T11:55:01.066Z,8.30
2023-01-31T11:57:38.853Z,14.30
2023-01-31T12:00:27.061Z,10.70
2023-01-31T12:03:09.253Z,9.00
2023-01-31T12:05:49.351Z,9.90
2023-01-31T12:08:36.077Z,10.50
2023-01-31T12:11:30.478Z,11.70
2023-01-31T12:14:25.421Z,9.40
2023-01-31T12:17:02.490Z,11.00
2023-01-31T12:19:50.320Z,11.80
2023-01-31T12:22:34.286Z,11.20
2023-01-31T12:25:19.969Z,12.70
2023-01-31T12:28:06.231Z,12.70
2023-01-31T12:30:56.666Z,10.90
2023-01-31T12:33:43.130Z,10.40
2023-01-31T12:36:35.264Z,15.10
2023-01-31T12:39:26.927Z,10.70
2023-01-31T12:42:26.216Z,15.60
2023-01-31T12:45:17.489Z,11.40
2023-01-31T12:48:11.570Z,10.70
2023-01-31T12:50:52.505Z,11.80
2023-01-31T12:53:49.411Z,13.50
2023-01-31T12:56:50.814Z,11.00
2023-01-31T12:59:39.137Z,19.60
2023-01-31T13:02:35.650Z,11.70
2023-01-31T13:05:32.146Z,15.30
2023-01-31T13:08:17.870Z,11.50
2023-01-31T13:11:01.750Z,12.50
2023-01-31T13:13:44.197Z,13.70
2023-01-31T13:16:24.046Z,14.90
2023-01-31T13:19:03.298Z,13.60
2023-01-31T13:21:47.051Z,14.50
2023-01-31T13:24:28.872Z,13.60
2023-01-31T13:27:11.135Z,13.00
2023-01-31T13:29:55.385Z,12.80
2023-01-31T13:32:34.303Z,16.10
2023-01-31T13:35:19.110Z,17.60
2023-01-31T13:38:03.519Z,20.10
2023-01-31T13:40:45.945Z,14.00
2023-01-31T13:43:21.197Z,18.40
2023-01-31T13:46:02.705Z,19.00
2023-01-31T13:48:45.264Z,15.60
2023-01-31T13:51:24.891Z,14.50
2023-01-31T13:54:06.810Z,17.80
2023-01-31T13:56:42.715Z,21.50
2023-01-31T13:59:29.406Z,26.30
2023-01-31T14:02:08.421Z,23.10
2023-01-31T14:04:43.014Z,26.00
2023-01-31T14:07:25.935Z,23.00
2023-01-31T14:10:31.265Z,23.50
2023-01-31T14:13:40.123Z,21.70
2023-01-31T14:16:40.585Z,19.90
2023-01-31T14:19:57.616Z,22.40
2023-01-31T14:22:35.774Z,18.50
2023-01-31T14:25:18.757Z,20.90
2023-01-31T14:28:06.400Z,22.00
2023-01-31T14:30:47.663Z,16.70
2023-01-31T14:33:27.650Z,16.90
2023-01-31T14:36:29.180Z,16.90
2023-01-31T14:39:44.866Z,19.90
2023-01-31T14:45:46.966Z,22.80
2023-01-31T14:48:40.568Z,22.10
2023-01-31T14:51:25.762Z,28.80
2023-01-31T14:54:26.583Z,18.80
2023-01-31T14:57:36.292Z,19.20
2023-01-31T15:00:23.651Z,26.20
2023-01-31T15:03:06.361Z,22.50
2023-01-31T15:05:51.342Z,21.90
2023-01-31T15:09:11.382Z,20.50
2023-01-31T15:11:47.535Z,21.00
2023-01-31T15:14:43.293Z,18.30
2023-01-31T15:17:40.099Z,23.70
2023-01-31T15:20:26.457Z,26.80
2023-01-31T15:23:09.440Z,17.40
2023-01-31T15:25:48.546Z,23.10
2023-01-31T15:28:30.054Z,19.10
2023-01-31T15:31:11.575Z,18.40
2023-01-31T15:33:51.619Z,19.60
2023-01-31T15:36:34.770Z,17.30
2023-01-31T15:39:24.354Z,16.30
2023-01-31T15:41:59.884Z,18.50
2023-01-31T15:44:36.510Z,16.90
2023-01-31T15:47:26.124Z,16.60
2023-01-31T15:50:02.993Z,16.40
2023-01-31T15:52:37.416Z,20.40
2023-01-31T15:55:18.377Z,20.80
2023-01-31T15:57:57.782Z,21.00
2023-01-31T16:00:39.189Z,19.90
2023-01-31T16:03:24.479Z,20.10
2023-01-31T16:06:03.252Z,22.20
2023-01-31T16:08:40.742Z,19.00
2023-01-31T16:11:15.213Z,20.20
2023-01-31T16:13:52.064Z,18.80
2023-01-31T16:16:27.903Z,14.10
2023-01-31T16:19:04.788Z,12.70
2023-01-31T16:21:42.912Z,16.90
2023-01-31T16:24:22.459Z,16.20
2023-01-31T16:27:04.043Z,12.70
2023-01-31T16:29:46.114Z,56.50
2023-01-31T16:32:26.249Z,14.20
2023-01-31T16:35:02.916Z,11.80
2023-01-31T16:37:40.641Z,10.80
2023-01-31T16:40:28.253Z,12.80
2023-01-31T16:43:20.072Z,10.60
2023-01-31T16:46:00.881Z,12.70
2023-01-31T16:48:37.465Z,13.10
2023-01-31T16:51:42.683Z,15.10
2023-01-31T16:54:23.925Z,11.10
2023-01-31T16:57:27.947Z,11.40
2023-01-31T17:00:06.518Z,31.00
2023-01-31T17:02:45.769Z,15.00
2023-01-31T17:05:24.927Z,16.10
2023-01-31T17:08:01.574Z,17.60
2023-01-31T17:10:37.147Z,11.70
2023-01-31T17:13:20.461Z,13.40
2023-01-31T17:15:54.614Z,20.00
2023-01-31T17:18:29.557Z,15.80
2023-01-31T17:21:07.521Z,15.10
2023-01-31T17:23:42.962Z,13.90
2023-01-31T17:26:31.009Z,14.00
2023-01-31T17:29:08.000Z,10.90
2023-01-31T17:31:43.000Z,12.90
2023-01-31T17:34:21.002Z,14.40
2023-01-31T17:36:55.366Z,17.40
2023-01-31T17:39:29.846Z,13.80
2023-01-31T17:42:05.064Z,17.10
2023-01-31T17:44:40.953Z,19.90
2023-01-31T17:47:18.169Z,47.50
2023-01-31T17:49:54.529Z,28.60
2023-01-31T17:52:28.884Z,22.00
2023-01-31T17:55:04.221Z,27.00
2023-01-31T17:57:42.998Z,36.90
2023-01-31T18:00:22.411Z,33.90
2023-01-31T18:03:05.544Z,31.10
2023-01-31T18:05:41.427Z,33.60
2023-01-31T18:08:18.884Z,33.00
2023-01-31T18:10:54.918Z,37.60
2023-01-31T18:13:30.096Z,41.10
2023-01-31T18:16:11.993Z,35.10
2023-01-31T18:18:47.699Z,52.90
2023-01-31T18:21:24.828Z,37.10
2023-01-31T18:24:04.171Z,35.60
2023-01-31T18:26:40.776Z,44.00
2023-01-31T18:29:20.607Z,38.50
2023-01-31T18:32:02.826Z,31.20
2023-01-31T18:34:40.872Z,33.80
2023-01-31T18:37:20.536Z,29.30
2023-01-31T18:39:56.889Z,44.40
2023-01-31T18:42:33.703Z,38.40
2023-01-31T18:45:11.303Z,36.70
2023-01-31T18:47:50.026Z,27.20
2023-01-31T18:50:25.946Z,30.50
2023-01-31T18:53:01.990Z,42.40
2023-01-31T18:55:35.792Z,41.10
2023-01-31T18:58:11.545Z,30.50
2023-01-31T19:00:47.358Z,29.40
2023-01-31T19:03:23.190Z,31.90
2023-01-31T19:06:04.834Z,28.00
2023-01-31T19:08:40.072Z,23.70
2023-01-31T19:11:20.398Z,21.50
2023-01-31T19:13:55.493Z,21.90
2023-01-31T19:16:33.314Z,22.40
2023-01-31T19:19:08.647Z,24.20
2023-01-31T19:21:47.477Z,21.20
2023-01-31T19:24:21.815Z,21.90
2023-01-31T19:27:02.293Z,26.70
2023-01-31T19:29:39.849Z,19.50
2023-01-31T19:32:15.763Z,15.10
2023-01-31T19:34:54.072Z,14.50
2023-01-31T19:37:29.758Z,16.00
2023-01-31T19:40:05.904Z,13.80
2023-01-31T19:42:45.110Z,17.70
2023-01-31T19:45:21.993Z,18.10
2023-01-31T19:48:01.569Z,20.40
2023-01-31T19:50:37.172Z,19.40
2023-01-31T19:53:12.662Z,13.10
2023-01-31T19:55:49.658Z,10.70
2023-01-31T19:58:25.893Z,11.70
2023-01-31T20:01:01.904Z,10.00
2023-01-31T20:03:39.043Z,9.80
2023-01-31T20:06:16.734Z,11.10
2023-01-31T20:08:55.483Z,10.60
2023-01-31T20:11:31.018Z,9.80
2023-01-31T20:14:07.969Z,10.80
2023-01-31T20:16:44.446Z,10.90
2023-01-31T20:19:20.602Z,11.60
2023-01-31T20:21:55.538Z,11.90
2023-01-31T20:24:30.884Z,10.40
2023-01-31T20:27:06.541Z,11.40
2023-01-31T20:29:42.884Z,10.80
2023-01-31T20:32:18.031Z,10.30
2023-01-31T20:34:57.408Z,9.30
2023-01-31T20:37:33.828Z,10.80
2023-01-31T20:40:09.358Z,11.20
2023-01-31T20:42:45.765Z,10.70
2023-01-31T20:45:26.900Z,11.20
2023-01-31T20:48:03.934Z,10.80
2023-01-31T20:50:39.932Z,12.30
2023-01-31T20:53:22.039Z,11.60
2023-01-31T20:56:02.298Z,12.70
2023-01-31T20:58:41.649Z,12.80
2023-01-31T21:01:18.493Z,13.70
2023-01-31T21:03:55.823Z,16.20
2023-01-31T21:06:32.159Z,16.30
2023-01-31T21:09:06.752Z,16.00
2023-01-31T21:11:42.297Z,13.40
2023-01-31T21:14:17.552Z,12.80
2023-01-31T21:16:53.023Z,13.80
2023-01-31T21:19:29.470Z,14.60
2023-01-31T21:22:05.268Z,13.20
2023-01-31T21:24:41.032Z,12.00
2023-01-31T21:27:17.395Z,11.90
2023-01-31T21:29:54.869Z,13.40
2023-01-31T21:32:30.822Z,10.80
2023-01-31T21:35:07.728Z,10.10
2023-01-31T21:37:43.235Z,11.10
2023-01-31T21:40:20.731Z,10.40
2023-01-31T21:42:56.924Z,10.50
2023-01-31T21:45:45.525Z,9.40
2023-01-31T21:48:31.073Z,10.50
2023-01-31T21:51:10.797Z,8.40
2023-01-31T21:53:46.665Z,5.40
2023-01-31T21:56:23.465Z,5.40
2023-01-31T21:58:59.101Z,3.60
2023-01-31T22:01:35.775Z,4.30
2023-01-31T22:04:11.847Z,4.80
2023-01-31T22:06:47.107Z,4.60
2023-01-31T22:09:24.053Z,5.40
2023-01-31T22:12:01.423Z,4.70
2023-01-31T22:14:38.530Z,5.10
2023-01-31T22:17:15.590Z,4.00
2023-01-31T22:19:50.951Z,5.30
2023-01-31T22:22:29.903Z,5.10
2023-01-31T22:25:04.949Z,4.40
2023-01-31T22:27:39.465Z,3.80
2023-01-31T22:30:18.763Z,4.60
2023-01-31T22:32:55.873Z,4.20
2023-01-31T22:35:32.918Z,3.10
2023-01-31T22:38:07.200Z,4.90
2023-01-31T22:40:45.865Z,5.60
2023-01-31T22:43:22.741Z,5.80
2023-01-31T22:46:02.055Z,7.40
2023-01-31T22:48:38.370Z,10.20
2023-01-31T22:51:16.655Z,5.00
2023-01-31T22:53:52.473Z,7.40
2023-01-31T22:56:29.022Z,7.50
2023-01-31T22:59:06.191Z,10.20
2023-01-31T23:01:45.704Z,7.30
2023-01-31T23:04:20.469Z,8.40
2023-01-31T23:06:54.859Z,9.80
2023-01-31T23:09:30.655Z,7.40
2023-01-31T23:12:07.175Z,6.10
2023-01-31T23:14:43.619Z,7.00
2023-01-31T23:17:36.002Z,6.70
2023-01-31T23:20:23.130Z,7.10
2023-01-31T23:22:59.929Z,7.00
2023-01-31T23:25:34.663Z,6.50
2023-01-31T23:28:09.514Z,8.70
2023-01-31T23:30:47.126Z,10.50
2023-01-31T23:33:23.147Z,7.40
2023-01-31T23:36:00.201Z,7.40
2023-01-31T23:38:36.300Z,8.50
2023-01-31T23:41:12.732Z,7.90
2023-01-31T23:43:49.760Z,10.50
2023-01-31T23:46:25.528Z,11.70
2023-01-31T23:49:00.396Z,8.60
2023-01-31T23:51:35.063Z,10.00
2023-01-31T23:54:12.142Z,10.60
2023-01-31T23:56:48.324Z,9.10
2023-01-31T23:59:22.419Z,9.70
